createdAt,value
2018-09-28T00:00:03.031Z,9.24
2018-09-28T00:01:03.124Z,9.27
2018-09-28T00:02:03.209Z,9.28
2018-09-28T00:03:12.196Z,9.20
2018-09-28T00:04:03.416Z,9.35
2018-09-28T00:05:03.505Z,9.13
2018-09-28T00:06:03.596Z,9.25
2018-09-28T00:07:03.686Z,9.23
2018-09-28T00:08:03.777Z,9.25
2018-09-28T00:09:03.868Z,9.25
2018-09-28T00:10:03.968Z,9.23
2018-09-28T00:11:04.060Z,9.18
2018-09-28T00:12:04.139Z,9.13
2018-09-28T00:13:04.233Z,9.20
2018-09-28T00:14:04.324Z,9.20
2018-09-28T00:15:04.415Z,9.20
2018-09-28T00:16:04.508Z,9.27
2018-09-28T00:17:04.601Z,9.15
2018-09-28T00:18:04.693Z,9.05
2018-09-28T00:19:04.780Z,9.15
2018-09-28T00:20:04.869Z,9.06
2018-09-28T00:21:04.966Z,9.09
2018-09-28T00:22:05.048Z,9.10
2018-09-28T00:23:05.135Z,9.09
2018-09-28T00:24:05.223Z,8.99
2018-09-28T00:25:05.314Z,9.04
2018-09-28T00:26:05.437Z,9.06
2018-09-28T00:27:05.499Z,9.04
2018-09-28T00:28:05.574Z,9.01
2018-09-28T00:29:05.647Z,9.01
2018-09-28T00:30:05.741Z,9.05
2018-09-28T00:31:05.821Z,8.99
2018-09-28T00:32:05.897Z,9.10
2018-09-28T00:33:05.990Z,8.97
2018-09-28T00:34:06.059Z,8.97
2018-09-28T00:35:06.146Z,8.94
2018-09-28T00:36:06.287Z,8.91
2018-09-28T00:37:06.315Z,8.91
2018-09-28T00:38:06.401Z,8.90
2018-09-28T00:39:06.487Z,8.87
2018-09-28T00:40:06.576Z,8.86
2018-09-28T00:41:06.666Z,8.79
2018-09-28T00:42:06.762Z,8.83
2018-09-28T00:43:06.831Z,8.75
2018-09-28T00:44:06.924Z,8.73
2018-09-28T00:45:07.026Z,8.71
2018-09-28T00:46:07.100Z,8.75
2018-09-28T00:47:07.179Z,8.60
2018-09-28T00:48:07.255Z,8.57
2018-09-28T00:49:07.354Z,8.63
2018-09-28T00:50:07.433Z,8.65
2018-09-28T00:51:07.523Z,8.69
2018-09-28T00:52:07.608Z,8.71
2018-09-28T00:53:07.703Z,8.63
2018-09-28T00:54:07.781Z,8.65
2018-09-28T00:55:07.871Z,8.66
2018-09-28T00:56:07.948Z,8.68
2018-09-28T00:57:08.064Z,8.58
2018-09-28T00:58:08.152Z,8.58
2018-09-28T00:59:08.246Z,8.62
2018-09-28T01:00:08.324Z,8.63
2018-09-28T01:01:08.420Z,8.62
2018-09-28T01:02:08.506Z,8.71
2018-09-28T01:03:08.590Z,8.60
2018-09-28T01:05:53.321Z,8.66
2018-09-28T01:06:53.048Z,8.65
2018-09-28T01:07:53.127Z,8.63
2018-09-28T01:08:53.219Z,8.66
2018-09-28T01:09:53.306Z,8.48
2018-09-28T01:10:53.393Z,8.55
2018-09-28T01:11:53.486Z,8.62
2018-09-28T01:12:53.582Z,8.51
2018-09-28T01:13:53.677Z,8.58
2018-09-28T01:14:53.767Z,8.54
2018-09-28T01:15:53.861Z,8.50
2018-09-28T01:16:53.945Z,8.55
2018-09-28T01:17:54.041Z,8.54
2018-09-28T01:18:54.130Z,8.47
2018-09-28T01:19:54.221Z,8.50
2018-09-28T01:20:54.308Z,8.48
2018-09-28T01:21:54.397Z,8.57
2018-09-28T01:22:54.491Z,8.51
2018-09-28T01:23:54.581Z,8.54
2018-09-28T01:24:54.672Z,8.53
2018-09-28T01:25:54.765Z,8.58
2018-09-28T01:26:54.855Z,8.48
2018-09-28T01:27:54.942Z,8.45
2018-09-28T01:28:55.036Z,8.48
2018-09-28T01:29:55.126Z,8.53
2018-09-28T01:30:55.218Z,8.39
2018-09-28T01:31:55.306Z,8.45
2018-09-28T01:32:55.392Z,8.53
2018-09-28T01:33:55.477Z,8.42
2018-09-28T01:34:55.567Z,8.39
2018-09-28T01:35:55.655Z,8.32
2018-09-28T01:36:55.745Z,8.45
2018-09-28T01:37:55.830Z,8.40
2018-09-28T01:38:55.915Z,8.42
2018-09-28T01:39:55.999Z,8.30
2018-09-28T01:40:56.083Z,8.36
2018-09-28T01:41:56.177Z,8.37
2018-09-28T01:42:56.261Z,8.36
2018-09-28T01:43:56.349Z,8.36
2018-09-28T01:44:56.433Z,8.32
2018-09-28T01:45:56.526Z,8.33
2018-09-28T01:46:56.613Z,8.37
2018-09-28T01:47:56.698Z,8.35
2018-09-28T01:48:56.787Z,8.30
2018-09-28T01:49:56.870Z,8.35
2018-09-28T01:50:56.953Z,8.30
2018-09-28T01:51:57.046Z,8.25
2018-09-28T01:52:57.131Z,8.33
2018-09-28T01:53:57.217Z,8.25
2018-09-28T01:54:57.301Z,8.33
2018-09-28T01:55:57.398Z,8.33
2018-09-28T01:56:57.482Z,8.18
2018-09-28T01:57:57.546Z,8.22
2018-09-28T01:58:57.657Z,8.20
2018-09-28T01:59:57.715Z,8.21
2018-09-28T02:00:57.818Z,8.21
2018-09-28T02:01:57.892Z,8.17
2018-09-28T02:02:57.970Z,8.21
2018-09-28T02:03:58.052Z,8.20
2018-09-28T02:04:58.137Z,8.20
2018-09-28T02:05:58.226Z,8.14
2018-09-28T02:06:58.311Z,8.17
2018-09-28T02:07:58.399Z,8.18
2018-09-28T02:08:58.502Z,8.11
2018-09-28T02:09:58.560Z,8.15
2018-09-28T02:10:58.656Z,8.17
2018-09-28T02:11:58.743Z,8.08
2018-09-28T02:12:58.824Z,8.10
2018-09-28T02:13:58.916Z,8.17
2018-09-28T02:14:59.003Z,8.10
2018-09-28T02:15:59.113Z,8.08
2018-09-28T02:16:59.188Z,8.12
2018-09-28T02:17:59.276Z,8.08
2018-09-28T02:18:59.361Z,8.15
2018-09-28T02:19:59.446Z,8.14
2018-09-28T02:20:59.540Z,8.07
2018-09-28T02:21:59.608Z,8.04
2018-09-28T02:22:59.681Z,8.03
2018-09-28T02:23:59.786Z,8.18
2018-09-28T02:24:59.864Z,8.07
2018-09-28T02:25:59.940Z,8.07
2018-09-28T02:28:44.071Z,8.12
2018-09-28T02:29:44.160Z,8.03
2018-09-28T02:30:44.250Z,8.07
2018-09-28T02:31:44.338Z,8.07
2018-09-28T02:32:44.425Z,8.03
2018-09-28T02:33:44.516Z,8.08
2018-09-28T02:34:44.607Z,8.07
2018-09-28T02:35:44.700Z,8.08
2018-09-28T02:36:44.780Z,8.03
2018-09-28T02:37:44.872Z,8.04
2018-09-28T02:38:44.964Z,7.99
2018-09-28T02:39:45.056Z,7.97
2018-09-28T02:40:45.141Z,7.96
2018-09-28T02:41:45.230Z,8.03
2018-09-28T02:42:45.320Z,8.02
2018-09-28T02:43:45.408Z,7.97
2018-09-28T02:44:45.494Z,7.89
2018-09-28T02:45:45.591Z,7.97
2018-09-28T02:46:45.684Z,8.03
2018-09-28T02:47:45.774Z,8.07
2018-09-28T02:48:45.861Z,7.96
2018-09-28T02:49:45.951Z,7.89
2018-09-28T02:50:46.060Z,7.94
2018-09-28T02:51:46.148Z,7.93
2018-09-28T02:52:46.244Z,7.87
2018-09-28T02:53:46.328Z,7.89
2018-09-28T02:54:46.419Z,7.87
2018-09-28T02:55:46.511Z,7.84
2018-09-28T02:56:46.686Z,7.82
2018-09-28T02:57:46.689Z,7.87
2018-09-28T02:58:46.776Z,7.79
2018-09-28T02:59:46.866Z,7.78
2018-09-28T03:00:46.955Z,7.75
2018-09-28T03:01:47.046Z,7.78
2018-09-28T03:02:47.136Z,7.71
2018-09-28T03:03:47.219Z,7.84
2018-09-28T03:04:47.315Z,7.77
2018-09-28T03:05:47.403Z,7.72
2018-09-28T03:06:47.495Z,7.79
2018-09-28T03:07:47.583Z,7.78
2018-09-28T03:08:47.677Z,7.78
2018-09-28T03:09:47.761Z,7.71
2018-09-28T03:10:47.850Z,7.69
2018-09-28T03:11:47.945Z,7.72
2018-09-28T03:12:48.033Z,7.71
2018-09-28T03:13:48.121Z,7.75
2018-09-28T03:14:48.238Z,7.66
2018-09-28T03:15:48.324Z,7.63
2018-09-28T03:16:48.415Z,7.78
2018-09-28T03:17:48.503Z,7.56
2018-09-28T03:18:48.598Z,7.67
2018-09-28T03:19:48.688Z,7.69
2018-09-28T03:20:48.774Z,7.66
2018-09-28T03:21:48.861Z,7.59
2018-09-28T03:22:48.951Z,7.60
2018-09-28T03:23:49.038Z,7.58
2018-09-28T03:24:49.122Z,7.66
2018-09-28T03:25:49.244Z,7.69
2018-09-28T03:26:49.309Z,7.67
2018-09-28T03:27:49.392Z,7.63
2018-09-28T03:28:49.475Z,7.63
2018-09-28T03:29:49.561Z,7.56
2018-09-28T03:30:49.656Z,7.49
2018-09-28T03:31:49.745Z,7.45
2018-09-28T03:32:49.882Z,7.50
2018-09-28T03:33:49.937Z,7.58
2018-09-28T03:34:50.018Z,7.69
2018-09-28T03:35:50.107Z,7.56
2018-09-28T03:36:50.200Z,7.52
2018-09-28T03:37:50.289Z,7.49
2018-09-28T03:38:50.368Z,7.44
2018-09-28T03:39:50.454Z,7.49
2018-09-28T03:40:50.551Z,7.45
2018-09-28T03:41:50.644Z,7.45
2018-09-28T03:42:50.714Z,7.55
2018-09-28T03:43:50.822Z,7.56
2018-09-28T03:44:50.887Z,7.53
2018-09-28T03:45:50.986Z,7.55
2018-09-28T03:46:51.076Z,7.56
2018-09-28T03:47:51.157Z,7.42
2018-09-28T03:48:51.239Z,7.41
2018-09-28T03:49:51.354Z,7.45
2018-09-28T03:50:51.439Z,7.47
2018-09-28T03:51:51.528Z,7.41
2018-09-28T03:52:51.623Z,7.44
2018-09-28T03:53:51.718Z,7.47
2018-09-28T03:54:51.801Z,7.45
2018-09-28T03:55:51.890Z,7.42
2018-09-28T03:56:51.977Z,7.42
2018-09-28T03:57:52.068Z,7.45
2018-09-28T03:58:52.145Z,7.44
2018-09-28T03:59:52.233Z,7.42
2018-09-28T04:00:52.319Z,7.34
2018-09-28T04:01:52.410Z,7.32
2018-09-28T04:02:52.495Z,7.26
2018-09-28T04:03:52.586Z,7.31
2018-09-28T04:04:52.667Z,7.40
2018-09-28T04:05:52.757Z,7.34
2018-09-28T04:06:52.842Z,7.26
2018-09-28T04:07:52.918Z,7.24
2018-09-28T04:08:53.005Z,7.23
2018-09-28T04:09:53.093Z,7.24
2018-09-28T04:10:53.180Z,7.23
2018-09-28T04:11:53.263Z,7.26
2018-09-28T04:12:53.355Z,7.24
2018-09-28T04:13:53.445Z,7.22
2018-09-28T04:14:53.531Z,7.27
2018-09-28T04:15:53.625Z,7.31
2018-09-28T04:16:53.706Z,7.32
2018-09-28T04:17:53.795Z,7.26
2018-09-28T04:18:53.882Z,7.35
2018-09-28T04:19:53.969Z,7.26
2018-09-28T04:20:54.062Z,7.22
2018-09-28T04:21:54.166Z,7.32
2018-09-28T04:22:54.238Z,7.26
2018-09-28T04:23:54.327Z,7.22
2018-09-28T04:24:54.417Z,7.24
2018-09-28T04:25:54.506Z,7.31
2018-09-28T04:26:54.591Z,7.19
2018-09-28T04:27:54.684Z,7.27
2018-09-28T04:28:54.774Z,7.13
2018-09-28T04:29:54.864Z,7.12
2018-09-28T04:30:54.955Z,7.19
2018-09-28T04:31:55.050Z,7.26
2018-09-28T04:32:55.137Z,7.24
2018-09-28T04:33:55.222Z,7.15
2018-09-28T04:34:55.315Z,7.17
2018-09-28T04:35:55.401Z,7.15
2018-09-28T04:36:55.490Z,7.12
2018-09-28T04:37:55.570Z,7.08
2018-09-28T04:38:55.665Z,7.24
2018-09-28T04:39:55.755Z,7.19
2018-09-28T04:40:55.847Z,7.19
2018-09-28T04:41:55.929Z,7.09
2018-09-28T04:42:56.024Z,7.16
2018-09-28T04:43:56.110Z,7.22
2018-09-28T04:44:56.199Z,7.13
2018-09-28T04:45:56.294Z,7.17
2018-09-28T04:46:56.382Z,7.20
2018-09-28T04:47:56.474Z,7.15
2018-09-28T04:48:56.576Z,7.22
2018-09-28T04:49:56.664Z,7.13
2018-09-28T04:50:56.760Z,7.15
2018-09-28T04:51:56.850Z,7.09
2018-09-28T04:52:56.939Z,7.12
2018-09-28T04:53:57.026Z,7.13
2018-09-28T04:54:57.115Z,7.13
2018-09-28T04:55:57.205Z,7.15
2018-09-28T04:56:57.295Z,7.13
2018-09-28T04:57:57.380Z,7.12
2018-09-28T04:58:57.471Z,7.15
2018-09-28T04:59:57.567Z,7.15
2018-09-28T05:00:57.657Z,7.08
2018-09-28T05:01:57.744Z,7.09
2018-09-28T05:02:57.838Z,7.16
2018-09-28T05:03:57.926Z,7.12
2018-09-28T05:04:58.016Z,7.13
2018-09-28T05:05:58.107Z,7.04
2018-09-28T05:06:58.197Z,7.01
2018-09-28T05:07:58.288Z,7.07
2018-09-28T05:08:58.377Z,7.04
2018-09-28T05:09:58.462Z,6.99
2018-09-28T05:10:58.557Z,6.99
2018-09-28T05:11:58.648Z,6.91
2018-09-28T05:12:58.806Z,6.91
2018-09-28T05:13:58.836Z,6.95
2018-09-28T05:14:58.929Z,7.02
2018-09-28T05:15:59.015Z,7.07
2018-09-28T05:16:59.105Z,7.07
2018-09-28T05:17:59.195Z,6.94
2018-09-28T05:18:59.288Z,6.84
2018-09-28T05:19:59.375Z,6.86
2018-09-28T05:20:59.459Z,6.76
2018-09-28T05:21:59.546Z,6.89
2018-09-28T05:22:59.635Z,6.91
2018-09-28T05:23:59.729Z,6.98
2018-09-28T05:24:59.819Z,6.86
2018-09-28T05:25:59.911Z,6.94
2018-09-28T05:27:00.011Z,6.94
2018-09-28T05:28:00.096Z,6.86
2018-09-28T05:29:00.188Z,6.81
2018-09-28T05:30:00.277Z,6.77
2018-09-28T05:31:00.407Z,6.87
2018-09-28T05:32:00.489Z,6.86
2018-09-28T05:33:00.613Z,6.87
2018-09-28T05:34:00.642Z,6.81
2018-09-28T05:35:00.731Z,6.79
2018-09-28T05:36:00.818Z,6.77
2018-09-28T05:37:00.909Z,6.97
2018-09-28T05:38:01.000Z,6.94
2018-09-28T05:39:01.094Z,6.89
2018-09-28T05:40:01.181Z,6.87
2018-09-28T05:41:01.271Z,6.97
2018-09-28T05:42:01.366Z,6.89
2018-09-28T05:43:01.455Z,6.97
2018-09-28T05:44:01.549Z,6.99
2018-09-28T05:45:01.642Z,7.01
2018-09-28T05:46:01.726Z,7.15
2018-09-28T05:47:01.808Z,7.08
2018-09-28T05:48:01.901Z,7.13
2018-09-28T05:49:01.993Z,7.16
2018-09-28T05:50:02.087Z,7.07
2018-09-28T05:51:02.176Z,7.12
2018-09-28T05:52:02.288Z,7.20
2018-09-28T05:53:02.374Z,7.16
2018-09-28T05:54:02.460Z,7.22
2018-09-28T05:55:02.557Z,7.08
2018-09-28T05:56:02.645Z,7.17
2018-09-28T05:57:02.736Z,7.15
2018-09-28T05:58:02.829Z,7.13
2018-09-28T05:59:02.920Z,7.15
2018-09-28T06:00:03.012Z,7.15
2018-09-28T06:01:03.103Z,7.19
2018-09-28T06:02:03.191Z,7.16
2018-09-28T06:03:10.438Z,7.26
2018-09-28T06:04:03.406Z,7.23
2018-09-28T06:05:03.505Z,7.22
2018-09-28T06:06:03.594Z,7.23
2018-09-28T06:07:03.685Z,7.32
2018-09-28T06:08:03.775Z,7.22
2018-09-28T06:09:03.865Z,7.23
2018-09-28T06:10:03.966Z,7.37
2018-09-28T06:11:04.053Z,7.37
2018-09-28T06:12:04.142Z,7.38
2018-09-28T06:13:04.229Z,7.49
2018-09-28T06:14:04.321Z,7.37
2018-09-28T06:15:04.408Z,7.50
2018-09-28T06:16:04.496Z,7.53
2018-09-28T06:17:04.589Z,7.59
2018-09-28T06:18:04.763Z,7.59
2018-09-28T06:19:04.771Z,7.60
2018-09-28T06:20:04.859Z,7.69
2018-09-28T06:21:04.957Z,7.67
2018-09-28T06:22:05.040Z,7.71
2018-09-28T06:23:05.131Z,7.87
2018-09-28T06:24:05.238Z,7.87
2018-09-28T06:25:05.309Z,7.97
2018-09-28T06:26:05.404Z,7.92
2018-09-28T06:27:05.490Z,7.94
2018-09-28T06:28:05.579Z,8.03
2018-09-28T06:29:05.668Z,8.04
2018-09-28T06:30:05.773Z,8.20
2018-09-28T06:31:05.859Z,8.20
2018-09-28T06:32:05.951Z,8.25
2018-09-28T06:33:06.037Z,8.21
2018-09-28T06:34:06.129Z,8.26
2018-09-28T06:35:06.218Z,8.30
2018-09-28T06:36:06.337Z,8.39
2018-09-28T06:37:06.396Z,8.42
2018-09-28T06:38:06.495Z,8.45
2018-09-28T06:39:06.571Z,8.51
2018-09-28T06:40:06.664Z,8.62
2018-09-28T06:41:06.763Z,8.69
2018-09-28T06:42:06.915Z,8.71
2018-09-28T06:43:06.937Z,8.79
2018-09-28T06:44:07.023Z,8.84
2018-09-28T06:45:07.123Z,8.91
2018-09-28T06:46:07.209Z,9.06
2018-09-28T06:47:07.301Z,9.05
2018-09-28T06:48:07.466Z,9.06
2018-09-28T06:49:07.488Z,9.20
2018-09-28T06:50:07.576Z,9.34
2018-09-28T06:51:07.709Z,9.35
2018-09-28T06:52:07.758Z,9.34
2018-09-28T06:53:07.849Z,9.46
2018-09-28T06:54:07.995Z,9.61
2018-09-28T06:55:08.031Z,9.60
2018-09-28T06:56:08.118Z,9.86
2018-09-28T06:57:08.213Z,9.83
2018-09-28T06:58:08.367Z,9.91
2018-09-28T06:59:08.395Z,9.94
2018-09-28T07:00:08.496Z,9.96
2018-09-28T07:01:08.581Z,10.07
2018-09-28T07:02:08.670Z,10.00
2018-09-28T07:03:08.760Z,9.99
2018-09-28T07:04:08.887Z,9.93
2018-09-28T07:05:08.944Z,10.03
2018-09-28T07:06:09.045Z,10.03
2018-09-28T07:07:09.128Z,10.07
2018-09-28T07:08:09.216Z,10.12
2018-09-28T07:09:09.307Z,10.09
2018-09-28T07:10:09.403Z,10.22
2018-09-28T07:11:09.493Z,10.19
2018-09-28T07:12:09.598Z,10.32
2018-09-28T07:13:09.673Z,10.32
2018-09-28T07:14:09.764Z,10.44
2018-09-28T07:15:09.853Z,10.52
2018-09-28T07:16:09.971Z,10.44
2018-09-28T07:17:10.034Z,10.62
2018-09-28T07:18:10.171Z,10.58
2018-09-28T07:19:10.217Z,10.51
2018-09-28T07:20:10.343Z,10.59
2018-09-28T07:21:10.403Z,10.59
2018-09-28T07:22:10.497Z,10.58
2018-09-28T07:23:10.587Z,10.53
2018-09-28T07:24:10.766Z,10.60
2018-09-28T07:25:10.839Z,10.63
2018-09-28T07:26:10.860Z,10.63
2018-09-28T07:27:10.955Z,10.68
2018-09-28T07:28:11.046Z,10.60
2018-09-28T07:29:11.140Z,10.68
2018-09-28T07:30:11.249Z,10.76
2018-09-28T07:31:11.319Z,10.76
2018-09-28T07:32:11.412Z,10.86
2018-09-28T07:33:11.511Z,10.91
2018-09-28T07:34:11.604Z,10.98
2018-09-28T07:35:11.696Z,11.06
2018-09-28T07:36:11.847Z,11.09
2018-09-28T07:37:12.097Z,11.17
2018-09-28T07:38:11.973Z,11.17
2018-09-28T07:39:12.069Z,11.24
2018-09-28T07:40:12.166Z,11.21
2018-09-28T07:41:12.261Z,11.35
2018-09-28T07:42:12.368Z,11.35
2018-09-28T07:43:12.443Z,11.35
2018-09-28T07:44:12.535Z,11.44
2018-09-28T07:45:12.630Z,11.59
2018-09-28T07:46:12.729Z,11.64
2018-09-28T07:47:12.817Z,11.77
2018-09-28T07:48:12.934Z,11.93
2018-09-28T07:49:13.052Z,12.04
2018-09-28T07:50:13.103Z,12.15
2018-09-28T07:51:13.225Z,12.23
2018-09-28T07:52:13.317Z,12.45
2018-09-28T07:53:13.410Z,12.44
2018-09-28T07:54:13.520Z,12.62
2018-09-28T07:55:13.611Z,12.70
2018-09-28T07:56:13.703Z,12.79
2018-09-28T07:57:13.801Z,12.92
2018-09-28T07:58:13.893Z,13.02
2018-09-28T07:59:13.979Z,13.09
2018-09-28T08:00:14.075Z,13.22
2018-09-28T08:01:14.169Z,13.29
2018-09-28T08:02:14.265Z,13.33
2018-09-28T08:03:14.360Z,13.41
2018-09-28T08:04:14.454Z,13.43
2018-09-28T08:05:14.551Z,13.40
2018-09-28T08:06:14.645Z,13.54
2018-09-28T08:07:14.736Z,13.55
2018-09-28T08:08:14.833Z,13.59
2018-09-28T08:09:14.924Z,13.52
2018-09-28T08:10:15.018Z,13.56
2018-09-28T08:11:15.109Z,13.46
2018-09-28T08:12:15.199Z,13.55
2018-09-28T08:13:15.299Z,13.59
2018-09-28T08:14:15.387Z,13.71
2018-09-28T08:15:15.479Z,13.70
2018-09-28T08:16:15.577Z,13.88
2018-09-28T08:17:15.670Z,13.62
2018-09-28T08:18:15.765Z,13.70
2018-09-28T08:19:15.858Z,13.89
2018-09-28T08:20:15.949Z,13.96
2018-09-28T08:21:16.039Z,13.80
2018-09-28T08:22:16.132Z,13.70
2018-09-28T08:23:16.292Z,13.79
2018-09-28T08:24:16.319Z,13.88
2018-09-28T08:25:16.419Z,13.91
2018-09-28T08:26:16.572Z,13.88
2018-09-28T08:27:16.667Z,13.96
2018-09-28T08:28:16.761Z,13.98
2018-09-28T08:29:16.851Z,14.01
2018-09-28T08:30:17.041Z,13.95
2018-09-28T08:31:17.041Z,13.79
2018-09-28T08:32:17.136Z,13.81
2018-09-28T08:33:17.257Z,13.89
2018-09-28T08:34:17.351Z,13.94
2018-09-28T08:35:17.445Z,13.98
2018-09-28T08:36:17.606Z,13.99
2018-09-28T08:37:17.635Z,14.06
2018-09-28T08:38:17.729Z,14.02
2018-09-28T08:39:17.825Z,14.04
2018-09-28T08:40:17.922Z,14.09
2018-09-28T08:41:18.009Z,14.09
2018-09-28T08:42:18.102Z,14.14
2018-09-28T08:43:18.198Z,14.10
2018-09-28T08:44:18.294Z,14.25
2018-09-28T08:45:18.385Z,14.20
2018-09-28T08:46:18.477Z,14.14
2018-09-28T08:47:18.627Z,14.04
2018-09-28T08:48:18.676Z,14.13
2018-09-28T08:49:18.863Z,14.07
2018-09-28T08:50:18.866Z,14.09
2018-09-28T08:51:18.960Z,14.06
2018-09-28T08:52:19.054Z,14.16
2018-09-28T08:53:19.135Z,14.12
2018-09-28T08:54:19.243Z,14.16
2018-09-28T08:55:19.333Z,14.14
2018-09-28T08:56:19.424Z,14.17
2018-09-28T08:57:19.522Z,14.16
2018-09-28T08:58:19.615Z,14.24
2018-09-28T08:59:19.709Z,14.19
2018-09-28T09:00:19.810Z,14.17
2018-09-28T09:01:19.900Z,14.17
2018-09-28T09:02:19.996Z,14.25
2018-09-28T09:03:20.089Z,14.28
2018-09-28T09:04:20.185Z,14.21
2018-09-28T09:05:20.261Z,14.32
2018-09-28T09:06:20.354Z,14.28
2018-09-28T09:07:20.446Z,14.39
2018-09-28T09:08:20.542Z,14.34
2018-09-28T09:09:20.636Z,14.29
2018-09-28T09:10:20.758Z,14.49
2018-09-28T09:11:20.826Z,14.44
2018-09-28T09:12:28.077Z,14.49
2018-09-28T09:13:21.048Z,14.49
2018-09-28T09:14:21.153Z,14.46
2018-09-28T09:15:21.237Z,14.43
2018-09-28T09:16:21.331Z,14.38
2018-09-28T09:17:21.428Z,14.43
2018-09-28T09:18:21.591Z,14.42
2018-09-28T09:19:21.677Z,14.52
2018-09-28T09:20:21.719Z,14.49
2018-09-28T09:21:28.956Z,14.46
2018-09-28T09:22:21.922Z,14.53
2018-09-28T09:23:22.021Z,14.53
2018-09-28T09:24:22.114Z,14.49
2018-09-28T09:25:22.211Z,14.56
2018-09-28T09:26:22.306Z,14.61
2018-09-28T09:27:22.397Z,14.72
2018-09-28T09:28:22.492Z,14.83
2018-09-28T09:29:22.589Z,14.78
2018-09-28T09:30:22.682Z,14.86
2018-09-28T09:31:22.788Z,14.80
2018-09-28T09:32:22.862Z,14.93
2018-09-28T09:33:22.962Z,14.84
2018-09-28T09:34:23.057Z,15.01
2018-09-28T09:35:23.152Z,14.90
2018-09-28T09:36:23.301Z,14.87
2018-09-28T09:37:23.351Z,14.91
2018-09-28T09:38:23.447Z,14.99
2018-09-28T09:39:23.539Z,15.01
2018-09-28T09:40:23.633Z,15.03
2018-09-28T09:41:23.728Z,15.12
2018-09-28T09:42:23.826Z,15.19
2018-09-28T09:43:23.919Z,15.24
2018-09-28T09:44:24.017Z,15.26
2018-09-28T09:45:24.111Z,15.31
2018-09-28T09:46:24.203Z,15.39
2018-09-28T09:47:24.297Z,15.36
2018-09-28T09:48:24.425Z,15.41
2018-09-28T09:49:24.488Z,15.45
2018-09-28T09:50:24.583Z,15.49
2018-09-28T09:51:24.679Z,15.48
2018-09-28T09:52:24.796Z,15.52
2018-09-28T09:53:24.912Z,15.52
2018-09-28T09:54:25.005Z,15.54
2018-09-28T09:55:25.096Z,15.49
2018-09-28T09:56:25.194Z,15.57
2018-09-28T09:57:25.288Z,15.61
2018-09-28T09:58:25.383Z,15.63
2018-09-28T09:59:25.479Z,15.63
2018-09-28T10:00:25.564Z,15.59
2018-09-28T10:01:25.669Z,15.57
2018-09-28T10:02:25.749Z,15.63
2018-09-28T10:03:25.846Z,15.70
2018-09-28T10:04:25.930Z,15.70
2018-09-28T10:05:26.031Z,15.61
2018-09-28T10:06:26.124Z,15.63
2018-09-28T10:07:26.220Z,15.63
2018-09-28T10:08:26.316Z,15.72
2018-09-28T10:09:26.413Z,15.63
2018-09-28T10:10:26.507Z,15.57
2018-09-28T10:11:26.602Z,15.56
2018-09-28T10:12:26.807Z,15.54
2018-09-28T10:13:26.795Z,15.56
2018-09-28T10:14:26.888Z,15.54
2018-09-28T10:15:26.984Z,15.42
2018-09-28T10:16:27.078Z,15.48
2018-09-28T10:17:27.194Z,15.43
2018-09-28T10:18:27.265Z,15.45
2018-09-28T10:19:27.366Z,15.52
2018-09-28T10:20:27.444Z,15.49
2018-09-28T10:21:27.535Z,15.48
2018-09-28T10:22:27.634Z,15.51
2018-09-28T10:23:27.730Z,15.57
2018-09-28T10:24:27.826Z,15.54
2018-09-28T10:25:27.906Z,15.51
2018-09-28T10:26:28.020Z,15.51
2018-09-28T10:27:28.179Z,15.46
2018-09-28T10:28:28.218Z,15.38
2018-09-28T10:29:28.303Z,15.24
2018-09-28T10:30:28.401Z,15.17
2018-09-28T10:31:28.496Z,15.03
2018-09-28T10:32:28.592Z,15.05
2018-09-28T10:33:28.717Z,15.26
2018-09-28T10:34:28.824Z,15.08
2018-09-28T10:35:28.875Z,15.06
2018-09-28T10:36:28.971Z,15.02
2018-09-28T10:37:29.064Z,15.06
2018-09-28T10:38:29.153Z,15.09
2018-09-28T10:39:29.249Z,14.78
2018-09-28T10:40:29.446Z,14.50
2018-09-28T10:41:29.436Z,14.52
2018-09-28T10:42:29.526Z,14.46
2018-09-28T10:43:29.621Z,14.53
2018-09-28T10:44:29.716Z,14.61
2018-09-28T10:45:29.886Z,14.60
2018-09-28T10:46:29.919Z,14.64
2018-09-28T10:47:29.995Z,14.56
2018-09-28T10:48:30.093Z,14.47
2018-09-28T10:49:30.186Z,14.53
2018-09-28T10:50:30.281Z,14.61
2018-09-28T10:51:30.495Z,14.69
2018-09-28T10:52:30.612Z,14.80
2018-09-28T10:53:30.568Z,14.72
2018-09-28T10:54:30.659Z,14.75
2018-09-28T10:55:30.754Z,14.67
2018-09-28T10:56:30.847Z,14.60
2018-09-28T10:57:30.985Z,14.56
2018-09-28T10:58:31.152Z,14.53
2018-09-28T10:59:31.132Z,14.49
2018-09-28T11:00:31.302Z,14.35
2018-09-28T11:01:31.323Z,14.42
2018-09-28T11:02:31.419Z,14.47
2018-09-28T11:03:31.537Z,14.62
2018-09-28T11:04:31.658Z,14.62
2018-09-28T11:05:31.700Z,14.49
2018-09-28T11:06:31.796Z,14.49
2018-09-28T11:07:31.889Z,14.60
2018-09-28T11:08:32.059Z,14.67
2018-09-28T11:09:32.080Z,14.67
2018-09-28T11:10:32.191Z,14.75
2018-09-28T11:11:32.269Z,14.83
2018-09-28T11:12:32.362Z,14.88
2018-09-28T11:13:32.456Z,14.81
2018-09-28T11:14:32.549Z,14.68
2018-09-28T11:15:32.659Z,14.80
2018-09-28T11:16:32.741Z,14.65
2018-09-28T11:17:32.831Z,14.56
2018-09-28T11:18:32.926Z,14.67
2018-09-28T11:19:33.019Z,14.83
2018-09-28T11:20:33.178Z,14.86
2018-09-28T11:21:33.255Z,14.60
2018-09-28T11:22:33.314Z,14.46
2018-09-28T11:23:33.409Z,14.42
2018-09-28T11:24:33.499Z,14.46
2018-09-28T11:25:33.592Z,14.52
2018-09-28T11:26:33.687Z,14.43
2018-09-28T11:27:33.809Z,14.43
2018-09-28T11:28:33.899Z,14.62
2018-09-28T11:29:33.971Z,14.90
2018-09-28T11:30:34.088Z,14.83
2018-09-28T11:31:34.180Z,15.03
2018-09-28T11:32:34.275Z,15.15
2018-09-28T11:33:34.397Z,15.36
2018-09-28T11:34:34.464Z,15.52
2018-09-28T11:35:34.553Z,15.57
2018-09-28T11:36:34.649Z,15.68
2018-09-28T11:37:34.765Z,15.82
2018-09-28T11:38:34.846Z,15.92
2018-09-28T11:39:34.952Z,15.96
2018-09-28T11:40:35.037Z,16.16
2018-09-28T11:41:35.133Z,16.09
2018-09-28T11:42:35.228Z,16.20
2018-09-28T11:43:35.321Z,16.30
2018-09-28T11:44:35.412Z,16.50
2018-09-28T11:45:35.558Z,16.48
2018-09-28T11:46:35.608Z,16.68
2018-09-28T11:47:35.704Z,16.70
2018-09-28T11:48:35.802Z,16.81
2018-09-28T11:49:35.896Z,17.08
2018-09-28T11:50:35.990Z,17.15
2018-09-28T11:51:36.097Z,17.08
2018-09-28T11:52:36.180Z,17.15
2018-09-28T11:53:36.276Z,16.99
2018-09-28T11:54:36.369Z,16.85
2018-09-28T11:55:36.469Z,16.92
2018-09-28T11:56:36.559Z,17.06
2018-09-28T11:57:36.708Z,17.10
2018-09-28T11:58:36.746Z,17.03
2018-09-28T11:59:36.847Z,16.99
2018-09-28T12:00:36.942Z,17.04
2018-09-28T12:01:37.039Z,16.89
2018-09-28T12:02:37.134Z,16.15
2018-09-28T12:03:37.231Z,16.22
2018-09-28T12:04:37.322Z,16.33
2018-09-28T12:05:37.418Z,16.09
2018-09-28T12:06:37.673Z,16.22
2018-09-28T12:07:37.618Z,16.25
2018-09-28T12:08:37.713Z,16.34
2018-09-28T12:09:37.863Z,16.49
2018-09-28T12:10:37.900Z,16.58
2018-09-28T12:11:37.985Z,16.53
2018-09-28T12:12:38.094Z,16.50
2018-09-28T12:13:38.173Z,16.63
2018-09-28T12:14:38.278Z,16.70
2018-09-28T12:15:38.387Z,16.74
2018-09-28T12:16:38.476Z,16.58
2018-09-28T12:17:38.574Z,16.25
2018-09-28T12:18:38.689Z,16.07
2018-09-28T12:19:38.765Z,15.67
2018-09-28T12:20:38.849Z,15.67
2018-09-28T12:21:38.989Z,15.67
2018-09-28T12:22:39.050Z,15.76
2018-09-28T12:23:39.147Z,15.97
2018-09-28T12:24:39.296Z,16.03
2018-09-28T12:25:39.338Z,16.11
2018-09-28T12:26:39.424Z,16.18
2018-09-28T12:27:39.570Z,16.18
2018-09-28T12:28:39.616Z,16.14
2018-09-28T12:29:39.758Z,16.27
2018-09-28T12:30:39.829Z,16.45
2018-09-28T12:31:39.890Z,16.48
2018-09-28T12:32:39.983Z,16.52
2018-09-28T12:33:40.086Z,16.49
2018-09-28T12:34:40.177Z,16.45
2018-09-28T12:35:40.433Z,16.50
2018-09-28T12:36:40.443Z,16.23
2018-09-28T12:37:40.469Z,16.03
2018-09-28T12:38:40.566Z,15.92
2018-09-28T12:39:40.755Z,16.00
2018-09-28T12:40:40.756Z,15.75
2018-09-28T12:41:40.848Z,15.60
2018-09-28T12:42:40.986Z,15.63
2018-09-28T12:43:41.038Z,15.68
2018-09-28T12:44:41.161Z,15.84
2018-09-28T12:45:41.279Z,15.79
2018-09-28T12:46:41.327Z,15.74
2018-09-28T12:47:41.424Z,15.89
2018-09-28T12:48:41.571Z,16.03
2018-09-28T12:49:41.632Z,15.99
2018-09-28T12:50:41.755Z,16.18
2018-09-28T12:51:41.822Z,16.30
2018-09-28T12:52:41.917Z,16.49
2018-09-28T12:53:42.035Z,16.56
2018-09-28T12:54:42.181Z,16.89
2018-09-28T12:55:42.205Z,16.90
2018-09-28T12:56:42.312Z,17.04
2018-09-28T12:57:42.395Z,17.13
2018-09-28T12:58:42.491Z,16.95
2018-09-28T12:59:42.589Z,17.07
2018-09-28T13:00:42.710Z,16.85
2018-09-28T13:01:42.797Z,16.56
2018-09-28T13:02:42.943Z,16.55
2018-09-28T13:03:42.976Z,16.65
2018-09-28T13:04:43.066Z,16.59
2018-09-28T13:05:43.162Z,16.50
2018-09-28T13:06:43.304Z,16.49
2018-09-28T13:07:43.354Z,16.62
2018-09-28T13:08:43.464Z,16.22
2018-09-28T13:09:43.549Z,16.16
2018-09-28T13:10:43.642Z,16.22